Time;durP1;ratioP1;P1;durP2;ratioP2;P2;SDS_P1;SDS_P2;PMS_P1;PMS_P2;Temp;Humidity;BMP_temperature;BMP_pressure;BME280_temperature;BME280_humidity;BME280_pressure;Samples;Min_cycle;Max_cycle;Signal;HPM_P1;HPM_P2
2024/01/22 00:01:40;;;;;;;;;;;;;;;;;;5151882;27;19927;-68
2024/01/22 00:04:07;;;;;;;;;;;;;;;;;;5129162;27;20459;-69
2024/01/22 00:06:33;;;;;;;;;;;;;;;;;;5129561;27;20539;-70
2024/01/22 00:08:59;;;;;;;;;;;;;;;;;;5131013;27;20748;-69
2024/01/22 00:11:24;;;;;;;;;;;;;;;;;;5133770;27;19923;-69
2024/01/22 00:13:50;;;;;;;;;;;;;;;;;;5127525;27;19923;-69
2024/01/22 00:16:16;;;;;;;;;;;;;;;;;;5134472;27;19946;-69
2024/01/22 00:18:42;;;;;;;;;;;;;;;;;;5121939;27;20335;-69
2024/01/22 00:21:08;;;;;;;;;;;;;;;;;;5126139;27;19927;-69
2024/01/22 00:23:34;;;;;;;;;;;;;;;;;;5125355;28;19963;-70
2024/01/22 00:26:00;;;;;;;;;;;;;;;;;;5119182;27;19979;-70
2024/01/22 00:28:26;;;;;;;;;;;;;;;;;;5116915;27;19940;-69
2024/01/22 00:30:52;;;;;;;;;;;;;;;;;;5132878;27;19923;-70
2024/01/22 00:33:18;;;;;;;;;;;;;;;;;;5133767;27;19923;-70
2024/01/22 00:35:44;;;;;;;;;;;;;;;;;;5153722;27;19941;-70
2024/01/22 00:38:09;;;;;;;;;;;;;;;;;;5133436;27;20653;-68
2024/01/22 00:40:35;;;;;;;;;;;;;;;;;;5132753;27;19923;-69
2024/01/22 00:43:01;;;;;;;;;;;;;;;;;;5150745;27;20581;-68
2024/01/22 00:45:27;;;;;;;;;;;;;;;;;;5131349;27;19926;-68
2024/01/22 00:47:53;;;;;;;;;;;;;;;;;;5135117;27;19964;-69
2024/01/22 00:50:19;;;;;;;;;;;;;;;;;;5135533;27;19931;-70
2024/01/22 00:52:45;;;;;;;;;;;;;;;;;;5134596;27;19924;-69
2024/01/22 00:55:11;;;;;;;;;;;;;;;;;;5126180;27;19919;-69
2024/01/22 00:57:37;;;;;;;;;;;;;;;;;;5133651;27;19922;-69
2024/01/22 01:00:03;;;;;;;;;;;;;;;;;;5129488;27;19969;-70
2024/01/22 01:02:29;;;;;;;;;;;;;;;;;;5147537;27;20372;-70
2024/01/22 01:04:55;;;;;;;;;;;;;;;;;;5134353;27;19919;-69
2024/01/22 01:07:21;;;;;;;;;;;;;;;;;;5131668;27;19923;-70
2024/01/22 01:09:47;;;;;;;;;;;;;;;;;;5131556;27;19926;-70
2024/01/22 01:12:13;;;;;;;;;;;;;;;;;;5154369;27;19946;-69
2024/01/22 01:14:39;;;;;;;;;;;;;;;;;;5136685;27;20423;-69
2024/01/22 01:17:04;;;;;;;;;;;;;;;;;;5118509;27;19923;-70
2024/01/22 01:19:31;;;;;;;;;;;;;;;;;;5131189;27;19919;-69
2024/01/22 01:21:57;;;;;;;;;;;;;;;;;;5134120;27;20378;-69
2024/01/22 01:24:23;;;;;;;;;;;;;;;;;;5128939;27;20022;-69
2024/01/22 01:26:49;;;;;;;;;;;;;;;;;;5151174;27;19927;-69
2024/01/22 01:29:14;;;;;;;;;;;;;;;;;;5136552;27;20055;-69
2024/01/22 01:31:40;;;;;;;;;;;;;;;;;;5130999;27;20025;-69
2024/01/22 01:34:06;;;;;;;;;;;;;;;;;;5129659;27;20334;-69
2024/01/22 01:36:32;;;;;;;;;;;;;;;;;;5151341;27;20010;-69
2024/01/22 01:38:58;;;;;;;;;;;;;;;;;;5129031;27;20048;-69
2024/01/22 01:41:24;;;;;;;;;;;;;;;;;;5129540;27;20277;-70
2024/01/22 01:43:50;;;;;;;;;;;;;;;;;;5135495;27;20565;-69
2024/01/22 01:46:16;;;;;;;;;;;;;;;;;;5115808;27;20013;-69
2024/01/22 01:48:42;;;;;;;;;;;;;;;;;;5115785;27;19919;-70
2024/01/22 01:51:08;;;;;;;;;;;;;;;;;;5133818;27;19926;-70
2024/01/22 01:53:34;;;;;;;;;;;;;;;;;;5131588;27;19927;-70
2024/01/22 01:56:00;;;;;;;;;;;;;;;;;;5128150;27;19923;-69
2024/01/22 01:58:26;;;;;;;;;;;;;;;;;;5128850;27;19930;-69
2024/01/22 02:00:52;;;;;;;;;;;;;;;;;;5135751;27;20338;-69
2024/01/22 02:03:17;;;;;;;;;;;;;;;;;;5118754;27;19923;-69
2024/01/22 02:05:43;;;;;;;;;;;;;;;;;;5143600;27;19923;-69
2024/01/22 02:08:09;;;;;;;;;;;;;;;;;;5118124;27;19919;-70
2024/01/22 02:10:35;;;;;;;;;;;;;;;;;;5132445;27;20375;-70
2024/01/22 02:13:04;;;;;;;;;;;;;;;;;;5115452;27;19934;-71
2024/01/22 02:15:30;;;;;;;;;;;;;;;;;;5127431;27;20021;-70
2024/01/22 02:17:56;;;;;;;;;;;;;;;;;;5135304;27;20337;-70
2024/01/22 02:20:22;;;;;;;;;;;;;;;;;;5130920;27;20241;-70
2024/01/22 02:22:48;;;;;;;;;;;;;;;;;;5129275;27;19923;-69
2024/01/22 02:25:14;;;;;;;;;;;;;;;;;;5133769;27;19948;-70
2024/01/22 02:27:40;;;;;;;;;;;;;;;;;;5131238;27;19919;-69
2024/01/22 02:30:06;;;;;;;;;;;;;;;;;;5127650;27;19929;-70
2024/01/22 02:32:32;;;;;;;;;;;;;;;;;;5135380;27;19980;-70
2024/01/22 02:34:58;;;;;;;;;;;;;;;;;;5133532;27;20411;-69
2024/01/22 02:37:24;;;;;;;;;;;;;;;;;;5151803;27;20005;-69
2024/01/22 02:39:50;;;;;;;;;;;;;;;;;;5154103;27;20005;-69
2024/01/22 02:42:16;;;;;;;;;;;;;;;;;;5128823;27;19927;-69
2024/01/22 02:44:41;;;;;;;;;;;;;;;;;;5132760;27;19918;-68
2024/01/22 02:47:07;;;;;;;;;;;;;;;;;;5133454;27;20033;-69
2024/01/22 02:49:34;;;;;;;;;;;;;;;;;;5134970;27;21917;-68
2024/01/22 02:52:00;;;;;;;;;;;;;;;;;;5133703;27;20352;-68
2024/01/22 02:54:27;;;;;;;;;;;;;;;;;;5127837;27;19990;-69
2024/01/22 02:56:53;;;;;;;;;;;;;;;;;;5108874;27;19923;-69
2024/01/22 02:59:19;;;;;;;;;;;;;;;;;;5145852;27;19927;-68
2024/01/22 03:01:45;;;;;;;;;;;;;;;;;;5130059;27;20029;-68
2024/01/22 03:04:11;;;;;;;;;;;;;;;;;;5126350;27;20007;-69
2024/01/22 03:06:37;;;;;;;;;;;;;;;;;;5110656;27;20031;-68
2024/01/22 03:09:03;;;;;;;;;;;;;;;;;;5132515;27;20389;-68
2024/01/22 03:11:29;;;;;;;;;;;;;;;;;;5144274;27;20030;-69
2024/01/22 03:13:54;;;;;;;;;;;;;;;;;;5127494;27;20021;-69
2024/01/22 03:16:20;;;;;;;;;;;;;;;;;;5151400;27;20002;-68
2024/01/22 03:18:46;;;;;;;;;;;;;;;;;;5147213;27;20630;-68
2024/01/22 03:21:12;;;;;;;;;;;;;;;;;;5132786;27;20352;-69
2024/01/22 03:23:39;;;;;;;;;;;;;;;;;;5132677;27;19927;-69
2024/01/22 03:26:05;;;;;;;;;;;;;;;;;;5133400;27;20379;-69
2024/01/22 03:28:31;;;;;;;;;;;;;;;;;;5145005;27;19920;-69
2024/01/22 03:30:57;;;;;;;;;;;;;;;;;;5112421;27;20009;-69
2024/01/22 03:33:23;;;;;;;;;;;;;;;;;;5151703;27;19930;-68
2024/01/22 03:35:49;;;;;;;;;;;;;;;;;;5132285;27;19922;-68
2024/01/22 03:38:15;;;;;;;;;;;;;;;;;;5150729;27;19926;-69
2024/01/22 03:40:41;;;;;;;;;;;;;;;;;;5146111;27;20257;-69
2024/01/22 03:43:06;;;;;;;;;;;;;;;;;;5128863;27;19927;-69
2024/01/22 03:45:32;;;;;;;;;;;;;;;;;;5127668;27;20284;-69
2024/01/22 03:47:58;;;;;;;;;;;;;;;;;;5131774;27;19934;-69
2024/01/22 03:50:24;;;;;;;;;;;;;;;;;;5115135;27;19920;-69
2024/01/22 03:52:50;;;;;;;;;;;;;;;;;;5130621;27;19923;-69
2024/01/22 03:55:16;;;;;;;;;;;;;;;;;;5148027;27;20304;-69
2024/01/22 03:57:42;;;;;;;;;;;;;;;;;;5114914;27;19919;-69
2024/01/22 04:00:08;;;;;;;;;;;;;;;;;;5126909;27;19930;-69
2024/01/22 04:02:34;;;;;;;;;;;;;;;;;;5148125;27;19919;-69
2024/01/22 04:05:00;;;;;;;;;;;;;;;;;;5115780;27;19926;-68
2024/01/22 04:07:26;;;;;;;;;;;;;;;;;;5130613;27;19923;-69
2024/01/22 04:09:52;;;;;;;;;;;;;;;;;;5133579;27;19923;-69
2024/01/22 04:12:18;;;;;;;;;;;;;;;;;;5150429;27;19923;-68
2024/01/22 04:14:43;;;;;;;;;;;;;;;;;;5136963;27;19926;-68
2024/01/22 04:17:09;;;;;;;;;;;;;;;;;;5138380;27;19930;-68
2024/01/22 04:19:35;;;;;;;;;;;;;;;;;;5140554;27;19919;-69
2024/01/22 04:22:03;;;;;;;;;;;;;;;;;;5146425;27;19923;-69
2024/01/22 04:24:29;;;;;;;;;;;;;;;;;;5143152;27;19923;-69
2024/01/22 04:26:55;;;;;;;;;;;;;;;;;;5138093;27;19968;-69
2024/01/22 04:29:21;;;;;;;;;;;;;;;;;;5139490;27;20304;-69
2024/01/22 04:31:47;;;;;;;;;;;;;;;;;;5136520;27;19962;-69
2024/01/22 04:34:12;;;;;;;;;;;;;;;;;;5134180;27;20009;-69
2024/01/22 04:36:38;;;;;;;;;;;;;;;;;;5138463;27;20490;-67
2024/01/22 04:39:04;;;;;;;;;;;;;;;;;;5138199;27;20005;-68
2024/01/22 04:41:30;;;;;;;;;;;;;;;;;;5129887;27;19966;-68
2024/01/22 04:43:56;;;;;;;;;;;;;;;;;;5136737;27;20059;-68
2024/01/22 04:46:22;;;;;;;;;;;;;;;;;;5138390;27;19927;-69
2024/01/22 04:48:48;;;;;;;;;;;;;;;;;;5138077;27;20486;-69
2024/01/22 04:51:14;;;;;;;;;;;;;;;;;;5137476;27;20269;-69
2024/01/22 04:53:42;;;;;;;;;;;;;;;;;;5132866;27;21360;-69
2024/01/22 04:56:08;;;;;;;;;;;;;;;;;;5154032;27;19926;-69
2024/01/22 04:58:34;;;;;;;;;;;;;;;;;;5134181;27;20391;-69
2024/01/22 05:01:00;;;;;;;;;;;;;;;;;;5128380;27;19926;-69
2024/01/22 05:03:26;;;;;;;;;;;;;;;;;;5136714;27;19930;-69
2024/01/22 05:05:52;;;;;;;;;;;;;;;;;;5131399;27;20005;-69
2024/01/22 05:08:18;;;;;;;;;;;;;;;;;;5117654;27;19966;-70
2024/01/22 05:10:44;;;;;;;;;;;;;;;;;;5129869;27;19950;-69
2024/01/22 05:13:10;;;;;;;;;;;;;;;;;;5132219;27;20264;-69
2024/01/22 05:15:36;;;;;;;;;;;;;;;;;;5129286;27;19923;-69
2024/01/22 05:18:02;;;;;;;;;;;;;;;;;;5130888;27;20345;-69
2024/01/22 05:20:28;;;;;;;;;;;;;;;;;;5131961;27;19958;-69
2024/01/22 05:22:54;;;;;;;;;;;;;;;;;;5132909;27;19967;-69
2024/01/22 05:25:20;;;;;;;;;;;;;;;;;;5112198;27;19923;-68
2024/01/22 05:27:47;;;;;;;;;;;;;;;;;;5136994;27;19919;-68
2024/01/22 05:30:13;;;;;;;;;;;;;;;;;;5114170;27;19923;-69
2024/01/22 05:32:39;;;;;;;;;;;;;;;;;;5129901;27;20336;-69
2024/01/22 05:35:05;;;;;;;;;;;;;;;;;;5134332;27;20006;-68
2024/01/22 05:37:31;;;;;;;;;;;;;;;;;;5117548;27;19919;-69
2024/01/22 05:39:57;;;;;;;;;;;;;;;;;;5114577;27;19919;-69
2024/01/22 05:42:23;;;;;;;;;;;;;;;;;;5135386;27;19931;-68
2024/01/22 05:44:49;;;;;;;;;;;;;;;;;;5118559;27;20011;-69
2024/01/22 05:47:15;;;;;;;;;;;;;;;;;;5109274;27;19919;-69
2024/01/22 05:49:41;;;;;;;;;;;;;;;;;;5135443;27;19927;-68
2024/01/22 05:52:07;;;;;;;;;;;;;;;;;;5135337;27;20341;-68
2024/01/22 05:54:33;;;;;;;;;;;;;;;;;;5133368;27;19934;-68
2024/01/22 05:56:59;;;;;;;;;;;;;;;;;;5133055;27;19934;-68
2024/01/22 05:59:25;;;;;;;;;;;;;;;;;;5152827;27;19919;-68
2024/01/22 06:01:51;;;;;;;;;;;;;;;;;;5128518;27;20439;-68
2024/01/22 06:04:17;;;;;;;;;;;;;;;;;;5117812;27;19919;-68
2024/01/22 06:06:46;;;;;;;;;;;;;;;;;;5143503;27;19927;-68
2024/01/22 06:09:12;;;;;;;;;;;;;;;;;;5147072;27;19923;-68
2024/01/22 06:11:38;;;;;;;;;;;;;;;;;;5129081;27;19930;-68
2024/01/22 06:14:04;;;;;;;;;;;;;;;;;;5152605;27;20291;-68
2024/01/22 06:16:29;;;;;;;;;;;;;;;;;;5154640;27;20264;-68
2024/01/22 06:18:55;;;;;;;;;;;;;;;;;;5118745;27;19971;-68
2024/01/22 06:21:21;;;;;;;;;;;;;;;;;;5129136;27;19926;-68
2024/01/22 06:23:47;;;;;;;;;;;;;;;;;;5133675;27;19926;-68
2024/01/22 06:26:13;;;;;;;;;;;;;;;;;;5134545;27;20395;-68
2024/01/22 06:28:39;;;;;;;;;;;;;;;;;;5127017;27;19927;-68
2024/01/22 06:31:05;;;;;;;;;;;;;;;;;;5135438;27;20539;-68
2024/01/22 06:33:31;;;;;;;;;;;;;;;;;;5129777;27;19972;-68
2024/01/22 06:35:57;;;;;;;;;;;;;;;;;;5131547;27;19981;-68
2024/01/22 06:38:23;;;;;;;;;;;;;;;;;;5113284;27;20376;-68
2024/01/22 06:40:51;;;;;;;;;;;;;;;;;;5117968;27;19930;-68
2024/01/22 06:43:16;;;;;;;;;;;;;;;;;;5131215;27;19930;-69
2024/01/22 06:45:43;;;;;;;;;;;;;;;;;;5126762;27;19926;-68
2024/01/22 06:48:09;;;;;;;;;;;;;;;;;;5135203;27;20376;-68
2024/01/22 06:50:34;;;;;;;;;;;;;;;;;;5132966;27;19927;-68
2024/01/22 06:53:00;;;;;;;;;;;;;;;;;;5129649;27;20441;-69
2024/01/22 06:55:26;;;;;;;;;;;;;;;;;;5150769;27;20380;-68
2024/01/22 06:57:52;;;;;;;;;;;;;;;;;;5129618;27;19946;-69
2024/01/22 07:00:19;;;;;;;;;;;;;;;;;;5125318;27;19926;-69
2024/01/22 07:02:45;;;;;;;;;;;;;;;;;;5129532;27;20380;-68
2024/01/22 07:05:11;;;;;;;;;;;;;;;;;;5111059;27;19926;-69
2024/01/22 07:07:41;;;;;;;;;;;;;;;;;;5131545;27;19923;-68
2024/01/22 07:10:07;;;;;;;;;;;;;;;;;;5152528;27;19934;-69
2024/01/22 07:12:33;;;;;;;;;;;;;;;;;;5127684;27;19923;-68
2024/01/22 07:15:00;;;;;;;;;;;;;;;;;;5126768;27;20284;-68
2024/01/22 07:17:26;;;;;;;;;;;;;;;;;;5125454;27;20015;-68
2024/01/22 07:19:52;;;;;;;;;;;;;;;;;;5126931;27;20017;-69
2024/01/22 07:22:18;;;;;;;;;;;;;;;;;;5133923;27;20086;-69
2024/01/22 07:24:44;;;;;;;;;;;;;;;;;;5133774;27;19919;-68
2024/01/22 07:27:10;;;;;;;;;;;;;;;;;;5151228;27;19922;-69
2024/01/22 07:29:36;;;;;;;;;;;;;;;;;;5147363;27;19920;-68
2024/01/22 07:32:02;;;;;;;;;;;;;;;;;;5129142;27;20384;-68
2024/01/22 07:34:28;;;;;;;;;;;;;;;;;;5132019;27;19934;-68
2024/01/22 07:36:54;;;;;;;;;;;;;;;;;;5126077;27;19930;-69
2024/01/22 07:39:20;;;;;;;;;;;;;;;;;;5153106;27;19922;-69
2024/01/22 07:41:46;;;;;;;;;;;;;;;;;;5129986;27;19927;-68
2024/01/22 07:44:12;;;;;;;;;;;;;;;;;;5101782;27;19938;-68
2024/01/22 07:46:38;;;;;;;;;;;;;;;;;;5132845;27;19950;-68
2024/01/22 07:49:04;;;;;;;;;;;;;;;;;;5138565;27;19972;-68
2024/01/22 07:51:30;;;;;;;;;;;;;;;;;;5134537;27;19955;-67
2024/01/22 07:53:56;;;;;;;;;;;;;;;;;;5134381;27;20439;-68
2024/01/22 07:56:22;;;;;;;;;;;;;;;;;;5119266;27;20017;-68
2024/01/22 07:58:48;;;;;;;;;;;;;;;;;;5137044;27;19966;-67
2024/01/22 08:01:14;;;;;;;;;;;;;;;;;;5125428;27;20430;-67
2024/01/22 08:03:40;;;;;;;;;;;;;;;;;;5144933;27;19923;-67
2024/01/22 08:06:06;;;;;;;;;;;;;;;;;;5133082;27;19920;-67
2024/01/22 08:08:32;;;;;;;;;;;;;;;;;;5136527;27;19919;-67
2024/01/22 08:10:58;;;;;;;;;;;;;;;;;;5140094;27;20544;-67
2024/01/22 08:13:23;;;;;;;;;;;;;;;;;;5110546;27;19959;-68
2024/01/22 08:15:49;;;;;;;;;;;;;;;;;;5148325;27;19973;-68
2024/01/22 08:18:15;;;;;;;;;;;;;;;;;;5123562;27;19919;-68
2024/01/22 08:20:41;;;;;;;;;;;;;;;;;;5130591;27;19923;-68
2024/01/22 08:23:07;;;;;;;;;;;;;;;;;;5133465;27;19956;-67
2024/01/22 08:25:33;;;;;;;;;;;;;;;;;;5152131;27;19926;-67
2024/01/22 08:28:00;;;;;;;;;;;;;;;;;;5130123;27;19923;-67
2024/01/22 08:30:26;;;;;;;;;;;;;;;;;;5134241;27;19967;-67
2024/01/22 08:32:52;;;;;;;;;;;;;;;;;;5123359;27;19967;-67
2024/01/22 08:35:18;;;;;;;;;;;;;;;;;;5154700;27;20006;-67
2024/01/22 08:37:50;;;;;;;;;;;;;;;;;;5150102;27;20326;-67
2024/01/22 08:40:17;;;;;;;;;;;;;;;;;;5130559;27;19930;-68
2024/01/22 08:42:43;;;;;;;;;;;;;;;;;;5140010;27;19927;-68
2024/01/22 08:45:09;;;;;;;;;;;;;;;;;;5131250;27;19976;-68
2024/01/22 08:47:35;;;;;;;;;;;;;;;;;;5151803;27;19983;-68
2024/01/22 08:50:01;;;;;;;;;;;;;;;;;;5145426;27;19941;-68
2024/01/22 08:52:27;;;;;;;;;;;;;;;;;;5124633;27;20297;-67
2024/01/22 08:54:53;;;;;;;;;;;;;;;;;;5136081;27;19926;-67
2024/01/22 08:57:19;;;;;;;;;;;;;;;;;;5134765;27;19927;-67
2024/01/22 08:59:45;;;;;;;;;;;;;;;;;;5151108;27;19923;-67
2024/01/22 09:02:11;;;;;;;;;;;;;;;;;;5144381;27;20296;-67
2024/01/22 09:04:37;;;;;;;;;;;;;;;;;;5154781;27;19958;-67
2024/01/22 09:07:03;;;;;;;;;;;;;;;;;;5131660;27;20035;-67
2024/01/22 09:09:28;;;;;;;;;;;;;;;;;;5147792;27;20406;-68
2024/01/22 09:11:54;;;;;;;;;;;;;;;;;;5141305;27;20006;-67
2024/01/22 09:14:20;;;;;;;;;;;;;;;;;;5113005;27;19919;-68
2024/01/22 09:16:46;;;;;;;;;;;;;;;;;;5128980;27;19958;-67
2024/01/22 09:19:12;;;;;;;;;;;;;;;;;;5123748;27;20596;-67
2024/01/22 09:21:38;;;;;;;;;;;;;;;;;;5152762;27;19923;-67
2024/01/22 09:24:04;;;;;;;;;;;;;;;;;;5150883;27;19942;-68
2024/01/22 09:26:30;;;;;;;;;;;;;;;;;;5132283;27;20276;-67
2024/01/22 09:28:56;;;;;;;;;;;;;;;;;;5141344;27;19923;-67
2024/01/22 09:31:22;;;;;;;;;;;;;;;;;;5128464;27;19931;-67
2024/01/22 09:33:50;;;;;;;;;;;;;;;;;;5133997;27;19919;-67
2024/01/22 09:36:17;;;;;;;;;;;;;;;;;;5132621;27;20432;-68
2024/01/22 09:38:43;;;;;;;;;;;;;;;;;;5128004;27;19962;-67
2024/01/22 09:41:09;;;;;;;;;;;;;;;;;;5150544;27;19958;-67
2024/01/22 09:43:35;;;;;;;;;;;;;;;;;;5149144;27;20056;-67
2024/01/22 09:46:00;;;;;;;;;;;;;;;;;;5144985;27;20396;-67
2024/01/22 09:48:26;;;;;;;;;;;;;;;;;;5115190;27;19930;-68
2024/01/22 09:50:52;;;;;;;;;;;;;;;;;;5130233;27;20391;-67
2024/01/22 09:53:19;;;;;;;;;;;;;;;;;;5147963;27;19923;-68
2024/01/22 09:55:45;;;;;;;;;;;;;;;;;;5147508;27;19930;-68
2024/01/22 09:58:11;;;;;;;;;;;;;;;;;;5126554;27;20288;-68
2024/01/22 10:00:37;;;;;;;;;;;;;;;;;;5124491;27;19926;-68
2024/01/22 10:03:03;;;;;;;;;;;;;;;;;;5128522;27;19929;-68
2024/01/22 10:05:29;;;;;;;;;;;;;;;;;;5109659;27;19934;-67
2024/01/22 10:07:55;;;;;;;;;;;;;;;;;;5126074;27;19946;-67
2024/01/22 10:10:21;;;;;;;;;;;;;;;;;;5110232;27;19930;-68
2024/01/22 10:12:47;;;;;;;;;;;;;;;;;;5112230;22;19982;-65
2024/01/22 10:15:13;;;;;;;;;;;;;;;;;;5086581;28;19924;-66
2024/01/22 10:17:39;;;;;;;;;;;;;;;;;;5072176;28;20018;-66
2024/01/22 10:20:05;;;;;;;;;;;;;;;;;;5091010;28;20010;-66
2024/01/22 10:22:31;;;;;;;;;;;;;;;;;;5068430;28;20398;-66
2024/01/22 10:24:57;;;;;;;;;;;;;;;;;;5097768;28;19926;-67
2024/01/22 10:27:23;;;;;;;;;;;;;;;;;;5093881;28;19973;-66
2024/01/22 10:29:48;;;;;;;;;;;;;;;;;;5095121;28;20034;-67
2024/01/22 10:32:14;;;;;;;;;;;;;;;;;;5086003;28;20413;-65
2024/01/22 10:34:40;;;;;;;;;;;;;;;;;;5084212;28;19924;-66
2024/01/22 10:37:06;;;;;;;;;;;;;;;;;;5099627;28;19926;-66
2024/01/22 10:39:32;;;;;;;;;;;;;;;;;;5095276;28;19951;-66
2024/01/22 10:41:58;;;;;;;;;;;;;;;;;;5092212;28;20407;-65
2024/01/22 10:44:24;;;;;;;;;;;;;;;;;;5085216;28;19963;-65
2024/01/22 10:46:51;;;;;;;;;;;;;;;;;;5088004;28;19963;-65
2024/01/22 10:49:17;;;;;;;;;;;;;;;;;;5080680;28;19924;-66
2024/01/22 10:51:43;;;;;;;;;;;;;;;;;;5081268;28;19946;-66
2024/01/22 10:54:10;;;;;;;;;;;;;;;;;;5085372;28;19936;-66
2024/01/22 10:56:36;;;;;;;;;;;;;;;;;;5097630;28;19920;-66
2024/01/22 10:59:02;;;;;;;;;;;;;;;;;;5089884;28;19919;-66
2024/01/22 11:01:28;;;;;;;;;;;;;;;;;;5079721;28;20397;-66
2024/01/22 11:03:54;;;;;;;;;;;;;;;;;;5089474;28;19924;-66
2024/01/22 11:06:20;;;;;;;;;;;;;;;;;;5089760;28;19931;-66
2024/01/22 11:08:46;;;;;;;;;;;;;;;;;;5068197;28;20307;-66
2024/01/22 11:11:13;;;;;;;;;;;;;;;;;;5089358;28;20488;-66
2024/01/22 11:13:39;;;;;;;;;;;;;;;;;;5093939;28;19920;-66
2024/01/22 11:16:05;;;;;;;;;;;;;;;;;;5082479;28;19927;-65
2024/01/22 11:18:31;;;;;;;;;;;;;;;;;;5084220;28;20315;-66
2024/01/22 11:20:57;;;;;;;;;;;;;;;;;;5080597;28;19936;-66
2024/01/22 11:23:23;;;;;;;;;;;;;;;;;;5092904;28;19920;-66
2024/01/22 11:25:49;;;;;;;;;;;;;;;;;;5086394;28;19936;-66
2024/01/22 11:28:15;;;;;;;;;;;;;;;;;;5104217;28;19973;-67
2024/01/22 11:30:41;;;;;;;;;;;;;;;;;;5088383;28;19924;-67
2024/01/22 11:33:07;;;;;;;;;;;;;;;;;;5076371;28;19923;-67
2024/01/22 11:35:33;;;;;;;;;;;;;;;;;;5071559;28;20010;-67
2024/01/22 11:37:59;;;;;;;;;;;;;;;;;;5097579;28;19923;-67
2024/01/22 11:40:25;;;;;;;;;;;;;;;;;;5099462;28;19938;-66
2024/01/22 11:42:51;;;;;;;;;;;;;;;;;;5095379;28;19934;-66
2024/01/22 11:45:17;;;;;;;;;;;;;;;;;;5083338;28;19962;-66
2024/01/22 11:47:43;;;;;;;;;;;;;;;;;;5093534;28;20011;-66
2024/01/22 11:50:10;;;;;;;;;;;;;;;;;;5086468;28;20285;-66
2024/01/22 11:52:36;;;;;;;;;;;;;;;;;;5095879;28;19930;-66
2024/01/22 11:55:02;;;;;;;;;;;;;;;;;;5075544;28;19955;-66
2024/01/22 11:57:28;;;;;;;;;;;;;;;;;;5089119;28;20006;-67
2024/01/22 11:59:54;;;;;;;;;;;;;;;;;;5063301;28;19924;-66
2024/01/22 12:02:20;;;;;;;;;;;;;;;;;;5078269;28;19924;-67
2024/01/22 12:04:45;;;;;;;;;;;;;;;;;;5083575;28;19920;-67
2024/01/22 12:07:11;;;;;;;;;;;;;;;;;;5085741;28;19935;-67
2024/01/22 12:09:37;;;;;;;;;;;;;;;;;;5089243;28;19924;-67
2024/01/22 12:12:04;;;;;;;;;;;;;;;;;;5083398;28;19924;-67
2024/01/22 12:14:30;;;;;;;;;;;;;;;;;;5082581;28;19924;-67
2024/01/22 12:16:55;;;;;;;;;;;;;;;;;;5082896;28;19924;-66
2024/01/22 12:19:21;;;;;;;;;;;;;;;;;;5085872;28;20012;-66
2024/01/22 12:21:47;;;;;;;;;;;;;;;;;;5090134;28;19927;-66
2024/01/22 12:24:14;;;;;;;;;;;;;;;;;;5083054;28;19921;-66
2024/01/22 12:26:40;;;;;;;;;;;;;;;;;;5097314;28;19935;-66
2024/01/22 12:29:06;;;;;;;;;;;;;;;;;;5084748;28;19966;-67
2024/01/22 12:31:32;;;;;;;;;;;;;;;;;;5096795;28;19959;-67
2024/01/22 12:33:57;;;;;;;;;;;;;;;;;;5094620;28;19959;-67
2024/01/22 12:36:23;;;;;;;;;;;;;;;;;;5101098;28;19979;-67
2024/01/22 12:38:50;;;;;;;;;;;;;;;;;;5107002;28;20007;-67
2024/01/22 12:41:16;;;;;;;;;;;;;;;;;;5088462;28;19920;-66
2024/01/22 12:43:42;;;;;;;;;;;;;;;;;;5076172;28;19939;-67
2024/01/22 12:46:08;;;;;;;;;;;;;;;;;;5108418;28;20301;-67
2024/01/22 12:48:34;;;;;;;;;;;;;;;;;;5101537;28;20412;-66
2024/01/22 12:51:00;;;;;;;;;;;;;;;;;;5112880;28;19943;-67
2024/01/22 12:53:26;;;;;;;;;;;;;;;;;;5105282;28;19920;-67
2024/01/22 12:55:52;;;;;;;;;;;;;;;;;;5108132;28;19942;-67
2024/01/22 12:58:18;;;;;;;;;;;;;;;;;;5089098;28;19926;-67
2024/01/22 13:00:44;;;;;;;;;;;;;;;;;;5097006;28;19923;-67
2024/01/22 13:03:10;;;;;;;;;;;;;;;;;;5076657;28;19921;-67
2024/01/22 13:05:36;;;;;;;;;;;;;;;;;;5099534;28;20376;-67
2024/01/22 13:08:02;;;;;;;;;;;;;;;;;;5094230;28;19931;-67
2024/01/22 13:10:31;;;;;;;;;;;;;;;;;;5101147;28;19930;-67
2024/01/22 13:12:57;;;;;;;;;;;;;;;;;;5097861;28;19983;-67
2024/01/22 13:15:23;;;;;;;;;;;;;;;;;;5093749;28;20843;-67
2024/01/22 13:17:50;;;;;;;;;;;;;;;;;;5075416;28;19961;-67
2024/01/22 13:20:16;;;;;;;;;;;;;;;;;;5107544;28;19949;-67
2024/01/22 13:22:42;;;;;;;;;;;;;;;;;;5103723;28;19924;-67
2024/01/22 13:25:08;;;;;;;;;;;;;;;;;;5110124;28;20015;-67
2024/01/22 13:27:34;;;;;;;;;;;;;;;;;;5076438;28;20382;-67
2024/01/22 13:30:00;;;;;;;;;;;;;;;;;;5103385;28;19938;-67
2024/01/22 13:32:26;;;;;;;;;;;;;;;;;;5098176;28;19966;-67
2024/01/22 13:34:53;;;;;;;;;;;;;;;;;;5086030;28;19930;-67
2024/01/22 13:37:19;;;;;;;;;;;;;;;;;;5069991;28;19932;-67
2024/01/22 13:39:45;;;;;;;;;;;;;;;;;;5088976;28;19925;-67
2024/01/22 13:42:11;;;;;;;;;;;;;;;;;;5095908;28;19932;-68
2024/01/22 13:44:37;;;;;;;;;;;;;;;;;;5092637;28;20373;-67
2024/01/22 13:47:03;;;;;;;;;;;;;;;;;;5088729;28;19943;-67
2024/01/22 13:49:29;;;;;;;;;;;;;;;;;;5087225;28;20262;-67
2024/01/22 13:51:58;;;;;;;;;;;;;;;;;;5097747;28;20374;-67
2024/01/22 13:54:23;;;;;;;;;;;;;;;;;;5094355;28;20316;-67
2024/01/22 13:56:49;;;;;;;;;;;;;;;;;;5085420;28;19935;-67
2024/01/22 13:59:15;;;;;;;;;;;;;;;;;;5088725;28;19921;-67
2024/01/22 14:01:41;;;;;;;;;;;;;;;;;;5083140;28;19965;-67
2024/01/22 14:04:07;;;;;;;;;;;;;;;;;;5082698;28;19928;-67
2024/01/22 14:06:33;;;;;;;;;;;;;;;;;;5068310;28;19928;-68
2024/01/22 14:09:00;;;;;;;;;;;;;;;;;;5085507;28;19931;-67
2024/01/22 14:11:26;;;;;;;;;;;;;;;;;;5086501;28;19928;-67
2024/01/22 14:13:52;;;;;;;;;;;;;;;;;;5084122;28;20281;-67
2024/01/22 14:16:20;;;;;;;;;;;;;;;;;;5096481;28;19927;-67
2024/01/22 14:18:46;;;;;;;;;;;;;;;;;;5069318;28;20370;-67
2024/01/22 14:21:12;;;;;;;;;;;;;;;;;;5099193;28;20007;-65
2024/01/22 14:23:38;;;;;;;;;;;;;;;;;;5080362;28;20361;-67
2024/01/22 14:26:04;;;;;;;;;;;;;;;;;;5089603;28;19928;-67
2024/01/22 14:28:30;;;;;;;;;;;;;;;;;;5088488;28;19924;-67
2024/01/22 14:30:56;;;;;;;;;;;;;;;;;;5099318;28;19924;-67
2024/01/22 14:33:22;;;;;;;;;;;;;;;;;;5068322;28;20293;-65
2024/01/22 14:35:50;;;;;;;;;;;;;;;;;;5084542;28;19928;-66
2024/01/22 14:38:16;;;;;;;;;;;;;;;;;;5066314;28;20304;-66
2024/01/22 14:40:42;;;;;;;;;;;;;;;;;;5086663;28;19947;-66
2024/01/22 14:43:09;;;;;;;;;;;;;;;;;;5093628;28;20460;-66
2024/01/22 14:45:35;;;;;;;;;;;;;;;;;;5089109;28;19942;-66
2024/01/22 14:48:01;;;;;;;;;;;;;;;;;;5085599;28;19920;-66
2024/01/22 14:50:27;;;;;;;;;;;;;;;;;;5092043;28;19939;-66
2024/01/22 14:52:53;;;;;;;;;;;;;;;;;;5064512;28;19924;-67
2024/01/22 14:55:19;;;;;;;;;;;;;;;;;;5089302;28;19924;-68
2024/01/22 14:57:45;;;;;;;;;;;;;;;;;;5071052;28;19978;-68
2024/01/22 15:00:12;;;;;;;;;;;;;;;;;;5088076;28;19928;-68
2024/01/22 15:02:38;;;;;;;;;;;;;;;;;;5066386;28;20255;-68
2024/01/22 15:05:03;;;;;;;;;;;;;;;;;;5079675;28;19970;-67
2024/01/22 15:07:29;;;;;;;;;;;;;;;;;;5064808;28;20635;-67
2024/01/22 15:09:55;;;;;;;;;;;;;;;;;;5094252;28;19921;-66
2024/01/22 15:12:21;;;;;;;;;;;;;;;;;;5074795;28;19928;-67
2024/01/22 15:14:47;;;;;;;;;;;;;;;;;;5096500;28;19925;-66
2024/01/22 15:17:13;;;;;;;;;;;;;;;;;;5085597;28;20530;-66
2024/01/22 15:19:39;;;;;;;;;;;;;;;;;;5081002;28;19928;-67
2024/01/22 15:22:06;;;;;;;;;;;;;;;;;;5097174;28;19920;-67
2024/01/22 15:24:32;;;;;;;;;;;;;;;;;;5096083;28;20365;-67
2024/01/22 15:26:58;;;;;;;;;;;;;;;;;;5071760;28;19924;-68
2024/01/22 15:29:24;;;;;;;;;;;;;;;;;;5095547;28;19950;-67
2024/01/22 15:31:50;;;;;;;;;;;;;;;;;;5066616;28;19934;-67
2024/01/22 15:34:16;;;;;;;;;;;;;;;;;;5086978;28;20737;-68
2024/01/22 15:36:42;;;;;;;;;;;;;;;;;;5076011;28;20007;-67
2024/01/22 15:39:08;;;;;;;;;;;;;;;;;;5096688;28;20011;-67
2024/01/22 15:41:34;;;;;;;;;;;;;;;;;;5096020;28;20018;-67
2024/01/22 15:44:03;;;;;;;;;;;;;;;;;;5099084;28;20258;-67
2024/01/22 15:46:29;;;;;;;;;;;;;;;;;;5075515;28;20572;-67
2024/01/22 15:48:55;;;;;;;;;;;;;;;;;;5091578;28;19928;-67
2024/01/22 15:51:21;;;;;;;;;;;;;;;;;;5104843;28;20040;-67
2024/01/22 15:53:47;;;;;;;;;;;;;;;;;;5094048;28;19928;-67
2024/01/22 15:56:13;;;;;;;;;;;;;;;;;;5098974;28;20616;-67
2024/01/22 15:58:39;;;;;;;;;;;;;;;;;;5097100;28;20366;-67
2024/01/22 16:01:05;;;;;;;;;;;;;;;;;;5092151;28;19955;-67
2024/01/22 16:03:31;;;;;;;;;;;;;;;;;;5077793;28;19942;-67
2024/01/22 16:06:00;;;;;;;;;;;;;;;;;;5083204;28;19924;-67
2024/01/22 16:08:26;;;;;;;;;;;;;;;;;;5099997;28;19920;-67
2024/01/22 16:10:52;;;;;;;;;;;;;;;;;;5100111;28;19935;-67
2024/01/22 16:13:18;;;;;;;;;;;;;;;;;;5094404;28;20300;-68
2024/01/22 16:15:44;;;;;;;;;;;;;;;;;;5097523;28;20021;-68
2024/01/22 16:18:10;;;;;;;;;;;;;;;;;;5065484;28;20011;-66
2024/01/22 16:20:36;;;;;;;;;;;;;;;;;;5088188;28;20362;-66
2024/01/22 16:23:02;;;;;;;;;;;;;;;;;;5087925;28;19924;-67
2024/01/22 16:25:29;;;;;;;;;;;;;;;;;;5091621;28;19923;-67
2024/01/22 16:27:57;;;;;;;;;;;;;;;;;;5088045;28;21812;-67
2024/01/22 16:30:23;;;;;;;;;;;;;;;;;;5099768;28;20009;-67
2024/01/22 16:32:49;;;;;;;;;;;;;;;;;;5086317;28;20320;-66
2024/01/22 16:35:15;;;;;;;;;;;;;;;;;;5085755;28;20854;-67
2024/01/22 16:37:41;;;;;;;;;;;;;;;;;;5085341;28;20377;-67